createdAt,value
2022-11-12T00:00:43.750Z,8.30
2022-11-12T00:03:16.018Z,8.20
2022-11-12T00:05:52.184Z,8.20
2022-11-12T00:08:24.554Z,8.10
2022-11-12T00:10:56.713Z,8.20
2022-11-12T00:13:28.289Z,8.10
2022-11-12T00:15:59.942Z,8.00
2022-11-12T00:18:31.029Z,8.00
2022-11-12T00:21:06.079Z,7.90
2022-11-12T00:23:38.238Z,7.80
2022-11-12T00:26:09.399Z,7.70
2022-11-12T00:28:40.484Z,7.60
2022-11-12T00:31:13.350Z,7.50
2022-11-12T00:33:45.367Z,7.50
2022-11-12T00:36:19.383Z,7.40
2022-11-12T00:38:50.647Z,7.30
2022-11-12T00:41:22.140Z,7.20
2022-11-12T00:43:53.200Z,7.10
2022-11-12T00:46:25.187Z,7.00
2022-11-12T00:48:56.758Z,6.80
2022-11-12T00:51:30.593Z,6.70
2022-11-12T00:54:02.863Z,6.60
2022-11-12T00:56:35.638Z,6.50
2022-11-12T00:59:07.207Z,6.40
2022-11-12T01:01:38.258Z,6.30
2022-11-12T01:04:11.214Z,6.20
2022-11-12T01:06:45.709Z,6.10
2022-11-12T01:09:16.829Z,6.10
2022-11-12T01:11:49.193Z,6.00
2022-11-12T01:14:20.265Z,6.00
2022-11-12T01:19:36.615Z,5.90
2022-11-12T01:22:10.734Z,5.80
2022-11-12T01:24:41.937Z,5.80
2022-11-12T01:27:12.935Z,5.90
2022-11-12T01:29:44.299Z,5.90
2022-11-12T01:32:16.032Z,5.90
2022-11-12T01:34:47.058Z,5.90
2022-11-12T01:37:21.762Z,6.00
2022-11-12T01:39:53.732Z,5.90
2022-11-12T01:42:26.914Z,5.90
2022-11-12T01:44:59.881Z,5.90
2022-11-12T01:47:34.215Z,5.80
2022-11-12T01:50:20.674Z,5.90
2022-11-12T01:52:57.151Z,5.90
2022-11-12T01:55:31.752Z,5.90
2022-11-12T01:58:11.609Z,5.90
2022-11-12T02:00:44.243Z,5.80
2022-11-12T02:03:21.833Z,5.80
2022-11-12T02:05:56.423Z,5.80
2022-11-12T02:08:32.648Z,5.80
2022-11-12T02:11:15.825Z,5.80
2022-11-12T02:14:02.195Z,5.80
2022-11-12T02:16:36.540Z,5.80
2022-11-12T02:19:08.903Z,5.80
2022-11-12T02:21:43.005Z,5.80
2022-11-12T02:24:35.399Z,5.80
2022-11-12T02:27:08.865Z,5.70
2022-11-12T02:29:47.151Z,5.70
2022-11-12T02:32:18.212Z,5.70
2022-11-12T02:34:49.550Z,5.70
2022-11-12T02:37:22.636Z,5.60
2022-11-12T02:39:53.706Z,5.60
2022-11-12T02:42:24.754Z,5.50
2022-11-12T02:44:56.202Z,5.50
2022-11-12T02:47:28.527Z,5.40
2022-11-12T02:49:59.545Z,5.40
2022-11-12T02:52:33.417Z,5.40
2022-11-12T02:55:04.725Z,5.40
2022-11-12T02:57:36.344Z,5.40
2022-11-12T03:00:09.497Z,5.30
2022-11-12T03:02:43.595Z,5.30
2022-11-12T03:05:16.130Z,5.30
2022-11-12T03:07:51.567Z,5.30
2022-11-12T03:10:22.883Z,5.30
2022-11-12T03:12:54.024Z,5.30
2022-11-12T03:15:25.849Z,5.30
2022-11-12T03:17:57.077Z,5.30
2022-11-12T03:20:28.266Z,5.30
2022-11-12T03:23:05.137Z,5.20
2022-11-12T03:25:37.016Z,5.20
2022-11-12T03:28:10.946Z,5.20
2022-11-12T03:30:44.129Z,5.10
2022-11-12T03:33:18.266Z,5.10
2022-11-12T03:35:49.665Z,5.00
2022-11-12T03:38:22.935Z,5.00
2022-11-12T03:40:54.242Z,5.00
2022-11-12T03:43:26.370Z,5.00
2022-11-12T03:45:57.601Z,5.00
2022-11-12T03:48:29.015Z,4.90
2022-11-12T03:51:03.314Z,4.90
2022-11-12T03:53:36.809Z,4.90
2022-11-12T03:56:08.155Z,4.90
2022-11-12T03:58:40.581Z,4.80
2022-11-12T04:01:11.719Z,4.90
2022-11-12T04:03:42.843Z,4.90
2022-11-12T04:06:30.277Z,5.00
2022-11-12T04:09:05.060Z,5.00
2022-11-12T04:11:36.604Z,5.00
2022-11-12T04:14:07.796Z,5.00
2022-11-12T04:17:00.602Z,5.10
2022-11-12T04:19:47.919Z,5.10
2022-11-12T04:22:18.968Z,5.20
2022-11-12T04:25:09.873Z,5.20
2022-11-12T04:27:44.020Z,5.20
2022-11-12T04:30:21.450Z,5.20
2022-11-12T04:32:56.054Z,5.30
2022-11-12T04:35:29.000Z,5.30
2022-11-12T04:38:00.089Z,5.30
2022-11-12T04:40:50.071Z,5.30
2022-11-12T04:43:38.472Z,5.30
2022-11-12T04:46:09.641Z,5.30
2022-11-12T04:48:40.659Z,5.30
2022-11-12T04:51:24.689Z,5.30
2022-11-12T04:53:55.702Z,5.40
2022-11-12T04:56:29.174Z,5.30
2022-11-12T04:59:00.202Z,5.30
2022-11-12T05:01:34.624Z,5.40
2022-11-12T05:04:06.905Z,5.40
2022-11-12T05:06:57.256Z,5.40
2022-11-12T05:09:30.023Z,5.40
2022-11-12T05:12:03.161Z,5.40
2022-11-12T05:14:34.432Z,5.40
2022-11-12T05:17:06.977Z,5.40
2022-11-12T05:19:38.001Z,5.40
2022-11-12T05:22:10.935Z,5.40
2022-11-12T05:24:49.517Z,5.40
2022-11-12T05:27:23.902Z,5.40
2022-11-12T05:29:55.015Z,5.40
2022-11-12T05:32:26.555Z,5.30
2022-11-12T05:34:58.535Z,5.30
2022-11-12T05:37:31.528Z,5.30
2022-11-12T05:40:04.715Z,5.20
2022-11-12T05:42:40.581Z,5.30
2022-11-12T05:45:13.432Z,5.30
2022-11-12T05:47:44.566Z,5.30
2022-11-12T05:50:15.644Z,5.30
2022-11-12T05:52:47.713Z,5.30
2022-11-12T05:55:19.069Z,5.30
2022-11-12T05:57:52.134Z,5.30
2022-11-12T06:00:23.626Z,5.20
2022-11-12T06:02:54.597Z,5.30
2022-11-12T06:05:27.114Z,5.20
2022-11-12T06:08:00.012Z,5.30
2022-11-12T06:10:31.244Z,5.20
2022-11-12T06:13:06.649Z,5.20
2022-11-12T06:15:39.568Z,5.20
2022-11-12T06:18:10.908Z,5.20
2022-11-12T06:20:42.423Z,5.20
2022-11-12T06:23:13.672Z,5.10
2022-11-12T06:25:44.860Z,5.10
2022-11-12T06:28:19.589Z,5.00
2022-11-12T06:30:50.598Z,5.00
2022-11-12T06:33:21.654Z,4.90
2022-11-12T06:36:03.995Z,4.80
2022-11-12T06:38:36.004Z,4.80
2022-11-12T06:41:09.054Z,4.70
2022-11-12T06:43:44.938Z,4.60
2022-11-12T06:46:17.955Z,4.50
2022-11-12T06:48:49.229Z,4.50
2022-11-12T06:51:21.819Z,4.40
2022-11-12T06:53:54.379Z,4.40
2022-11-12T06:56:26.232Z,4.30
2022-11-12T06:59:00.629Z,4.30
2022-11-12T07:01:31.705Z,4.20
2022-11-12T07:04:04.859Z,4.20
2022-11-12T07:06:37.615Z,4.10
2022-11-12T07:09:10.651Z,4.10
2022-11-12T07:11:42.711Z,4.00
2022-11-12T07:14:17.452Z,4.00
2022-11-12T07:16:48.478Z,3.90
2022-11-12T07:19:21.306Z,3.80
2022-11-12T07:21:53.080Z,3.70
2022-11-12T07:24:24.705Z,3.70
2022-11-12T07:26:58.315Z,3.60
2022-11-12T07:29:46.887Z,3.40
2022-11-12T07:32:18.391Z,3.40
2022-11-12T07:34:51.678Z,3.30
2022-11-12T07:37:22.812Z,3.30
2022-11-12T07:39:54.336Z,3.20
2022-11-12T07:42:26.160Z,3.20
2022-11-12T07:45:00.260Z,3.20
2022-11-12T07:47:32.097Z,3.10
2022-11-12T07:50:03.302Z,3.10
2022-11-12T07:52:37.460Z,3.00
2022-11-12T07:55:10.673Z,3.00
2022-11-12T07:57:41.515Z,3.00
2022-11-12T08:00:17.614Z,3.00
2022-11-12T08:02:48.631Z,2.90
2022-11-12T08:05:21.507Z,2.90
2022-11-12T08:07:54.364Z,2.90
2022-11-12T08:10:28.016Z,2.80
2022-11-12T08:13:00.393Z,2.70
2022-11-12T08:15:33.737Z,2.70
2022-11-12T08:18:05.870Z,2.60
2022-11-12T08:20:36.922Z,2.60
2022-11-12T08:23:09.506Z,2.60
2022-11-12T08:25:41.484Z,2.50
2022-11-12T08:28:13.297Z,2.50
2022-11-12T08:30:48.405Z,2.50
2022-11-12T08:33:20.347Z,2.50
2022-11-12T08:35:52.011Z,2.50
2022-11-12T08:38:23.050Z,2.40
2022-11-12T08:40:55.390Z,2.40
2022-11-12T08:43:26.399Z,2.40
2022-11-12T08:46:02.598Z,2.40
2022-11-12T08:48:35.038Z,2.30
2022-11-12T08:51:07.309Z,2.30
2022-11-12T08:53:41.143Z,2.30
2022-11-12T08:56:12.148Z,2.30
2022-11-12T08:58:43.216Z,2.30
2022-11-12T09:01:16.319Z,2.20
2022-11-12T09:03:48.034Z,2.20
2022-11-12T09:06:19.736Z,2.20
2022-11-12T09:08:50.829Z,2.20
2022-11-12T09:11:22.681Z,2.20
2022-11-12T09:13:56.053Z,2.20
2022-11-12T09:16:30.833Z,2.10
2022-11-12T09:19:03.086Z,2.10
2022-11-12T09:21:34.850Z,2.00
2022-11-12T09:24:06.771Z,2.00
2022-11-12T09:26:38.648Z,2.00
2022-11-12T09:29:09.640Z,2.00
2022-11-12T09:31:42.753Z,2.00
2022-11-12T09:34:15.272Z,2.00
2022-11-12T09:36:47.041Z,2.00
2022-11-12T09:39:18.347Z,2.00
2022-11-12T09:41:51.027Z,1.90
2022-11-12T09:44:25.448Z,1.90
2022-11-12T09:47:04.960Z,2.00
2022-11-12T09:49:39.664Z,1.90
2022-11-12T09:52:17.505Z,1.90
2022-11-12T09:54:49.118Z,1.90
2022-11-12T09:57:21.018Z,1.90
2022-11-12T09:59:53.150Z,1.80
2022-11-12T10:02:36.042Z,1.80
2022-11-12T10:05:26.860Z,1.70
2022-11-12T10:08:10.391Z,1.80
2022-11-12T10:10:49.650Z,1.70
2022-11-12T10:13:35.822Z,1.70
2022-11-12T10:16:37.232Z,1.70
2022-11-12T10:19:27.420Z,1.70
2022-11-12T10:22:05.643Z,1.70
2022-11-12T10:24:40.121Z,1.70
2022-11-12T10:27:19.760Z,1.60
2022-11-12T10:29:56.799Z,1.60
2022-11-12T10:32:27.913Z,1.60
2022-11-12T10:35:01.903Z,1.50
2022-11-12T10:37:40.287Z,1.40
2022-11-12T10:40:32.838Z,1.40
2022-11-12T10:43:06.259Z,1.30
2022-11-12T10:45:37.671Z,1.20
2022-11-12T10:48:27.215Z,1.20
2022-11-12T10:51:01.632Z,1.20
2022-11-12T10:53:36.941Z,1.20
2022-11-12T10:56:25.396Z,1.20
2022-11-12T10:59:17.166Z,1.30
2022-11-12T11:01:49.959Z,1.30
2022-11-12T11:04:31.809Z,1.30
2022-11-12T11:07:08.733Z,1.20
2022-11-12T11:09:40.326Z,1.20
2022-11-12T11:12:26.805Z,1.20
2022-11-12T11:15:11.292Z,1.10
2022-11-12T11:17:42.639Z,1.20
2022-11-12T11:20:22.429Z,1.10
2022-11-12T11:23:01.292Z,1.20
2022-11-12T11:25:33.672Z,1.10
2022-11-12T11:28:19.480Z,1.10
2022-11-12T11:30:57.991Z,1.10
2022-11-12T11:33:41.139Z,1.10
2022-11-12T11:36:25.746Z,1.00
2022-11-12T11:39:05.352Z,1.00
2022-11-12T11:41:57.026Z,1.10
2022-11-12T11:44:36.335Z,1.00
2022-11-12T11:47:20.216Z,1.00
2022-11-12T11:50:21.068Z,1.00
2022-11-12T11:53:03.783Z,1.00
2022-11-12T11:55:58.250Z,1.00
2022-11-12T11:58:59.207Z,0.90
2022-11-12T12:01:38.066Z,0.90
2022-11-12T12:04:34.730Z,0.90
2022-11-12T12:07:18.076Z,0.90
2022-11-12T12:09:58.844Z,1.00
2022-11-12T12:12:47.501Z,1.00
2022-11-12T12:15:46.418Z,1.00
2022-11-12T12:18:30.571Z,0.90
2022-11-12T12:21:07.347Z,0.90
2022-11-12T12:23:44.632Z,0.90
2022-11-12T12:26:21.384Z,0.90
2022-11-12T12:29:01.531Z,0.90
2022-11-12T12:31:37.694Z,0.90
2022-11-12T12:34:18.998Z,0.90
2022-11-12T12:36:54.005Z,0.90
2022-11-12T12:39:29.840Z,0.90
2022-11-12T12:42:04.935Z,0.90
2022-11-12T12:45:03.090Z,0.90
2022-11-12T12:47:39.050Z,0.90
2022-11-12T12:50:15.297Z,0.80
2022-11-12T12:53:19.969Z,0.80
2022-11-12T12:55:53.169Z,0.80
2022-11-12T12:58:31.271Z,0.80
2022-11-12T13:01:09.050Z,0.80
2022-11-12T13:04:06.572Z,0.80
2022-11-12T13:06:40.371Z,0.70
2022-11-12T13:09:27.350Z,0.70
2022-11-12T13:12:15.921Z,0.70
2022-11-12T13:15:11.938Z,0.80
2022-11-12T13:17:51.664Z,0.80
2022-11-12T13:20:42.343Z,0.70
2022-11-12T13:23:57.176Z,0.70
2022-11-12T13:26:50.032Z,0.70
2022-11-12T13:29:45.498Z,0.70
2022-11-12T13:32:40.404Z,0.70
2022-11-12T13:35:31.349Z,0.60
2022-11-12T13:38:17.134Z,0.60
2022-11-12T13:40:50.424Z,0.60
2022-11-12T13:43:36.965Z,0.60
2022-11-12T13:46:27.028Z,0.60
2022-11-12T13:49:03.895Z,0.50
2022-11-12T13:51:46.034Z,0.50
2022-11-12T13:54:36.257Z,0.50
2022-11-12T13:57:32.576Z,0.50
2022-11-12T14:00:23.111Z,0.50
2022-11-12T14:02:58.499Z,0.50
2022-11-12T14:05:32.854Z,0.40
2022-11-12T14:08:18.885Z,0.50
2022-11-12T14:11:00.949Z,0.40
2022-11-12T14:13:47.917Z,0.40
2022-11-12T14:16:29.036Z,0.30
2022-11-12T14:19:28.414Z,0.40
2022-11-12T14:22:13.990Z,0.40
2022-11-12T14:24:49.661Z,0.40
2022-11-12T14:27:38.846Z,0.40
2022-11-12T14:30:18.194Z,0.40
2022-11-12T14:32:51.387Z,0.40
2022-11-12T14:35:38.021Z,0.40
2022-11-12T14:38:17.514Z,0.40
2022-11-12T14:40:55.422Z,0.40
2022-11-12T14:43:30.978Z,0.40
2022-11-12T14:46:04.721Z,0.30
2022-11-12T14:48:40.987Z,0.30
2022-11-12T14:51:17.090Z,0.30
2022-11-12T14:53:52.096Z,0.30
2022-11-12T14:56:37.416Z,0.40
2022-11-12T14:59:09.473Z,0.30
2022-11-12T15:04:41.633Z,0.40
2022-11-12T15:07:27.915Z,0.30
2022-11-12T15:09:58.983Z,0.30
2022-11-12T15:12:35.534Z,0.30
2022-11-12T15:15:13.964Z,0.30
2022-11-12T15:17:45.051Z,0.40
2022-11-12T15:20:19.662Z,0.40
2022-11-12T15:22:54.171Z,0.40
2022-11-12T15:25:27.598Z,0.40
2022-11-12T15:28:16.521Z,0.40
2022-11-12T15:31:04.492Z,0.40
2022-11-12T15:33:40.703Z,0.50
2022-11-12T15:36:20.469Z,0.50
2022-11-12T15:38:53.405Z,0.50
2022-11-12T15:41:27.923Z,0.50
2022-11-12T15:44:01.553Z,0.50
2022-11-12T15:46:32.629Z,0.50
2022-11-12T15:49:03.809Z,0.50
2022-11-12T15:51:34.987Z,0.50
2022-11-12T15:54:07.364Z,0.60
2022-11-12T15:56:38.914Z,0.60
2022-11-12T15:59:17.750Z,0.60
2022-11-12T16:01:50.049Z,0.70
2022-11-12T16:04:21.499Z,0.70
2022-11-12T16:06:52.938Z,0.70
2022-11-12T16:09:24.604Z,0.70
2022-11-12T16:11:58.494Z,0.80
2022-11-12T16:14:32.087Z,0.80
2022-11-12T16:17:03.945Z,0.80
2022-11-12T16:19:37.360Z,0.80
2022-11-12T16:22:13.561Z,0.90
2022-11-12T16:24:45.164Z,1.00
2022-11-12T16:27:18.892Z,1.10
2022-11-12T16:29:52.001Z,1.10
2022-11-12T16:32:23.674Z,1.20
2022-11-12T16:35:00.835Z,1.20
2022-11-12T16:37:33.922Z,1.30
2022-11-12T16:40:05.460Z,1.40
2022-11-12T16:42:37.546Z,1.40
2022-11-12T16:45:12.509Z,1.50
2022-11-12T16:47:48.469Z,1.50
2022-11-12T16:50:22.757Z,1.50
2022-11-12T16:52:54.327Z,1.60
2022-11-12T16:55:26.243Z,1.70
2022-11-12T16:57:57.372Z,1.80
2022-11-12T17:00:31.358Z,1.90
2022-11-12T17:03:03.025Z,1.90
2022-11-12T17:05:34.180Z,2.10
2022-11-12T17:08:05.235Z,2.20
2022-11-12T17:10:36.473Z,2.20
2022-11-12T17:13:07.531Z,2.30
2022-11-12T17:15:41.157Z,2.50
2022-11-12T17:18:13.407Z,2.60
2022-11-12T17:20:50.015Z,2.70
2022-11-12T17:23:25.349Z,2.80
2022-11-12T17:26:05.236Z,2.90
2022-11-12T17:28:36.769Z,2.90
2022-11-12T17:31:14.811Z,3.00
2022-11-12T17:33:49.263Z,3.00
2022-11-12T17:36:24.959Z,3.10
2022-11-12T17:38:58.271Z,3.30
2022-11-12T17:41:31.812Z,3.40
2022-11-12T17:44:03.881Z,3.40
2022-11-12T17:46:38.309Z,3.50
2022-11-12T17:49:10.599Z,3.60
2022-11-12T17:51:41.695Z,3.60
2022-11-12T17:54:13.615Z,3.70
2022-11-12T17:56:46.315Z,3.80
2022-11-12T17:59:18.187Z,3.80
2022-11-12T18:01:51.382Z,3.90
2022-11-12T18:04:23.965Z,4.00
2022-11-12T18:06:57.713Z,4.10
2022-11-12T18:09:28.778Z,4.20
2022-11-12T18:12:00.493Z,4.40
2022-11-12T18:14:32.693Z,4.40
2022-11-12T18:17:06.695Z,4.50
2022-11-12T18:19:37.728Z,4.50
2022-11-12T18:22:09.472Z,4.60
2022-11-12T18:24:42.333Z,4.70
2022-11-12T18:27:14.537Z,4.80
2022-11-12T18:29:47.171Z,4.90
2022-11-12T18:32:20.810Z,5.00
2022-11-12T18:34:51.980Z,5.10
2022-11-12T18:37:23.842Z,5.20
2022-11-12T18:39:54.842Z,5.30
2022-11-12T18:42:26.001Z,5.40
2022-11-12T18:44:57.686Z,5.30
2022-11-12T18:47:35.157Z,5.30
2022-11-12T18:50:08.849Z,5.40
2022-11-12T18:52:41.058Z,5.50
2022-11-12T18:55:13.006Z,5.50
2022-11-12T18:57:44.082Z,5.60
2022-11-12T19:00:19.269Z,5.60
2022-11-12T19:02:53.400Z,5.70
2022-11-12T19:05:25.219Z,5.70
2022-11-12T19:07:57.846Z,5.80
2022-11-12T19:10:30.519Z,5.90
2022-11-12T19:13:05.013Z,6.00
2022-11-12T19:15:38.007Z,6.10
2022-11-12T19:18:11.613Z,6.00
2022-11-12T19:20:45.743Z,6.10
2022-11-12T19:23:17.708Z,6.20
2022-11-12T19:25:49.529Z,6.20
2022-11-12T19:28:21.868Z,6.20
2022-11-12T19:30:53.350Z,6.30
2022-11-12T19:33:26.523Z,6.40
2022-11-12T19:36:00.951Z,6.50
2022-11-12T19:38:34.698Z,6.50
2022-11-12T19:41:14.686Z,6.60
2022-11-12T19:43:49.925Z,6.60
2022-11-12T19:46:22.760Z,6.80
2022-11-12T19:48:56.176Z,6.90
2022-11-12T19:51:26.970Z,6.90
2022-11-12T19:53:58.529Z,6.90
2022-11-12T19:56:30.321Z,6.90
2022-11-12T19:59:01.648Z,7.00
2022-11-12T20:01:32.761Z,7.10
2022-11-12T20:04:06.878Z,7.10
2022-11-12T20:06:41.270Z,7.10
2022-11-12T20:09:12.749Z,7.20
2022-11-12T20:11:43.969Z,7.40
2022-11-12T20:14:15.283Z,7.50
2022-11-12T20:16:46.858Z,7.50
2022-11-12T20:19:23.409Z,7.60
2022-11-12T20:21:54.459Z,7.60
2022-11-12T20:24:25.937Z,7.80
2022-11-12T20:26:59.328Z,7.80
2022-11-12T20:29:30.394Z,7.90
2022-11-12T20:32:01.420Z,7.90
2022-11-12T20:34:35.429Z,8.00
2022-11-12T20:37:06.486Z,8.10
2022-11-12T20:39:37.511Z,8.20
2022-11-12T20:42:10.093Z,8.20
2022-11-12T20:44:48.084Z,8.40
2022-11-12T20:47:20.913Z,8.30
2022-11-12T20:49:54.006Z,8.40
2022-11-12T20:52:25.224Z,8.30
2022-11-12T20:54:56.274Z,8.30
2022-11-12T20:57:29.324Z,8.40
2022-11-12T21:00:00.962Z,8.40
2022-11-12T21:02:32.495Z,8.40
2022-11-12T21:05:05.703Z,8.50
2022-11-12T21:07:37.341Z,8.60
2022-11-12T21:10:10.699Z,8.70
2022-11-12T21:12:42.626Z,8.80
2022-11-12T21:15:14.075Z,8.80
2022-11-12T21:17:45.100Z,9.00
2022-11-12T21:20:18.563Z,9.00
2022-11-12T21:22:50.254Z,9.10
2022-11-12T21:25:21.309Z,9.30
2022-11-12T21:27:52.331Z,9.50
2022-11-12T21:30:24.489Z,9.60
2022-11-12T21:32:56.422Z,9.70
2022-11-12T21:35:29.488Z,9.70
2022-11-12T21:38:00.527Z,9.70
2022-11-12T21:40:31.776Z,9.70
2022-11-12T21:43:08.089Z,9.60
2022-11-12T21:45:39.150Z,9.70
2022-11-12T21:48:10.012Z,9.70
2022-11-12T21:50:43.110Z,9.90
2022-11-12T21:53:14.737Z,10.00
2022-11-12T21:55:46.949Z,10.00
2022-11-12T21:58:18.045Z,10.10
2022-11-12T22:00:49.743Z,10.00
2022-11-12T22:03:21.366Z,10.20
2022-11-12T22:05:55.431Z,10.10
2022-11-12T22:08:27.758Z,10.20
2022-11-12T22:11:05.460Z,10.20
2022-11-12T22:13:37.869Z,10.30
2022-11-12T22:16:10.528Z,10.30
2022-11-12T22:18:42.159Z,10.10
2022-11-12T22:21:17.605Z,10.20
2022-11-12T22:23:49.845Z,10.10
2022-11-12T22:26:23.984Z,10.20
2022-11-12T22:28:55.637Z,10.20
2022-11-12T22:31:30.014Z,10.30
2022-11-12T22:34:02.284Z,10.00
2022-11-12T22:36:37.585Z,10.20
2022-11-12T22:39:09.075Z,10.20
2022-11-12T22:41:39.905Z,10.20
2022-11-12T22:44:11.078Z,10.30
2022-11-12T22:46:42.667Z,10.30
2022-11-12T22:49:13.670Z,10.30
2022-11-12T22:51:47.418Z,10.50
2022-11-12T22:54:19.034Z,10.50
2022-11-12T22:56:50.239Z,10.50
2022-11-12T22:59:21.821Z,10.30
2022-11-12T23:01:53.609Z,10.20
2022-11-12T23:04:24.632Z,10.00
2022-11-12T23:06:57.974Z,9.70
2022-11-12T23:09:29.030Z,9.60
2022-11-12T23:12:00.711Z,9.40
2022-11-12T23:14:31.869Z,9.40
2022-11-12T23:17:03.559Z,9.30
2022-11-12T23:19:34.599Z,9.10
2022-11-12T23:22:08.337Z,9.10
2022-11-12T23:24:40.208Z,8.90
2022-11-12T23:27:11.656Z,8.90
2022-11-12T23:29:42.695Z,8.80
2022-11-12T23:32:13.753Z,8.80
2022-11-12T23:34:44.752Z,8.70
2022-11-12T23:37:17.781Z,8.50
2022-11-12T23:39:50.086Z,8.40
2022-11-12T23:42:22.421Z,8.30
2022-11-12T23:44:53.914Z,8.10
2022-11-12T23:47:25.149Z,8.00
2022-11-12T23:49:56.167Z,7.90
2022-11-12T23:52:30.114Z,7.80
2022-11-12T23:55:01.157Z,7.80
2022-11-12T23:57:34.344Z,7.70
